createdAt,value
2018-07-07T00:02:24.245Z,15.51
2018-07-07T00:04:52.393Z,15.47
2018-07-07T00:07:20.497Z,15.41
2018-07-07T00:09:48.625Z,15.37
2018-07-07T00:12:17.052Z,15.33
2018-07-07T00:14:45.363Z,15.26
2018-07-07T00:17:14.085Z,15.22
2018-07-07T00:19:42.825Z,15.18
2018-07-07T00:22:11.553Z,15.13
2018-07-07T00:24:40.236Z,15.08
2018-07-07T00:27:08.679Z,15.00
2018-07-07T00:29:37.235Z,14.96
2018-07-07T00:32:05.821Z,14.92
2018-07-07T00:34:34.478Z,14.91
2018-07-07T00:37:03.198Z,14.90
2018-07-07T00:39:31.636Z,14.86
2018-07-07T00:42:00.141Z,14.81
2018-07-07T00:44:28.301Z,14.77
2018-07-07T00:46:57.022Z,14.73
2018-07-07T00:49:25.414Z,14.70
2018-07-07T00:51:54.281Z,14.66
2018-07-07T00:54:22.871Z,14.63
2018-07-07T00:56:52.083Z,14.60
2018-07-07T00:59:20.792Z,14.55
2018-07-07T01:01:49.417Z,14.51
2018-07-07T01:04:17.989Z,14.49
2018-07-07T01:06:46.629Z,14.45
2018-07-07T01:09:15.076Z,14.42
2018-07-07T01:11:43.497Z,14.37
2018-07-07T01:14:12.037Z,14.36
2018-07-07T01:16:40.654Z,14.34
2018-07-07T01:19:08.744Z,14.33
2018-07-07T01:21:36.864Z,14.33
2018-07-07T01:24:05.005Z,14.33
2018-07-07T01:26:33.861Z,14.33
2018-07-07T01:29:03.226Z,14.30
2018-07-07T01:31:31.808Z,14.29
2018-07-07T01:34:00.249Z,14.28
2018-07-07T01:36:28.371Z,14.26
2018-07-07T01:38:56.805Z,14.25
2018-07-07T01:41:25.153Z,14.26
2018-07-07T01:43:53.861Z,14.25
2018-07-07T01:46:21.960Z,14.24
2018-07-07T01:48:50.701Z,14.21
2018-07-07T01:51:19.332Z,14.17
2018-07-07T01:53:47.649Z,14.10
2018-07-07T01:56:16.089Z,14.06
2018-07-07T01:58:44.400Z,14.03
2018-07-07T02:01:13.368Z,13.98
2018-07-07T02:03:42.096Z,13.95
2018-07-07T02:06:11.052Z,13.95
2018-07-07T02:08:40.019Z,13.91
2018-07-07T02:11:08.756Z,13.91
2018-07-07T02:13:36.848Z,13.89
2018-07-07T02:16:05.177Z,13.87
2018-07-07T02:18:33.922Z,13.85
2018-07-07T02:21:02.181Z,13.82
2018-07-07T02:23:30.545Z,13.78
2018-07-07T02:25:59.016Z,13.75
2018-07-07T02:28:27.449Z,13.73
2018-07-07T02:30:55.577Z,13.73
2018-07-07T02:33:24.114Z,13.71
2018-07-07T02:35:52.606Z,13.70
2018-07-07T02:38:21.493Z,13.67
2018-07-07T02:40:50.089Z,13.64
2018-07-07T02:43:18.738Z,13.63
2018-07-07T02:45:47.433Z,13.61
2018-07-07T02:48:16.365Z,13.60
2018-07-07T02:50:44.649Z,13.59
2018-07-07T02:53:13.385Z,13.59
2018-07-07T02:55:42.038Z,13.56
2018-07-07T02:58:10.645Z,13.53
2018-07-07T03:00:39.076Z,13.51
2018-07-07T03:03:07.932Z,13.50
2018-07-07T03:05:36.547Z,13.47
2018-07-07T03:08:04.854Z,13.47
2018-07-07T03:10:33.769Z,13.44
2018-07-07T03:13:02.105Z,13.42
2018-07-07T03:15:30.925Z,13.40
2018-07-07T03:17:59.889Z,13.42
2018-07-07T03:20:28.525Z,13.43
2018-07-07T03:22:56.801Z,13.42
2018-07-07T03:25:25.546Z,13.42
2018-07-07T03:27:53.692Z,13.40
2018-07-07T03:30:22.223Z,13.40
2018-07-07T03:32:51.184Z,13.42
2018-07-07T03:35:20.013Z,13.45
2018-07-07T03:37:48.433Z,13.47
2018-07-07T03:40:16.945Z,13.46
2018-07-07T03:42:45.407Z,13.49
2018-07-07T03:45:14.265Z,13.51
2018-07-07T03:47:42.725Z,13.53
2018-07-07T03:50:11.039Z,13.55
2018-07-07T03:52:39.561Z,13.54
2018-07-07T03:55:08.508Z,13.54
2018-07-07T03:57:37.044Z,13.55
2018-07-07T04:00:05.828Z,13.60
2018-07-07T04:02:34.157Z,13.61
2018-07-07T04:05:02.581Z,13.64
2018-07-07T04:07:31.097Z,13.68
2018-07-07T04:09:59.185Z,13.72
2018-07-07T04:12:27.634Z,13.74
2018-07-07T04:14:56.593Z,13.73
2018-07-07T04:17:25.289Z,13.72
2018-07-07T04:19:53.669Z,13.70
2018-07-07T04:22:22.078Z,13.68
2018-07-07T04:24:51.008Z,13.68
2018-07-07T04:27:19.109Z,13.69
2018-07-07T04:29:47.557Z,13.70
2018-07-07T04:32:16.138Z,13.74
2018-07-07T04:34:44.256Z,13.78
2018-07-07T04:37:13.142Z,13.83
2018-07-07T04:39:41.814Z,13.87
2018-07-07T04:42:10.405Z,13.88
2018-07-07T04:44:38.992Z,13.87
2018-07-07T04:47:08.536Z,13.89
2018-07-07T04:49:37.305Z,13.99
2018-07-07T04:52:05.733Z,14.09
2018-07-07T04:54:34.301Z,14.09
2018-07-07T04:57:02.405Z,14.14
2018-07-07T04:59:31.200Z,14.20
2018-07-07T05:01:59.660Z,14.34
2018-07-07T05:04:28.595Z,14.49
2018-07-07T05:06:57.185Z,14.59
2018-07-07T05:09:25.617Z,14.65
2018-07-07T05:11:54.045Z,14.77
2018-07-07T05:14:23.000Z,14.92
2018-07-07T05:16:51.727Z,15.01
2018-07-07T05:19:20.548Z,15.14
2018-07-07T05:21:49.180Z,15.21
2018-07-07T05:24:17.816Z,15.30
2018-07-07T05:26:46.193Z,15.36
2018-07-07T05:29:14.669Z,15.45
2018-07-07T05:31:43.025Z,15.51
2018-07-07T05:34:11.585Z,15.69
2018-07-07T05:36:39.977Z,15.87
2018-07-07T05:39:08.742Z,15.96
2018-07-07T05:41:37.202Z,16.06
2018-07-07T05:44:05.872Z,16.19
2018-07-07T05:46:34.543Z,16.25
2018-07-07T05:49:02.657Z,16.21
2018-07-07T05:51:31.433Z,16.21
2018-07-07T05:54:00.428Z,16.31
2018-07-07T05:56:28.832Z,16.58
2018-07-07T05:58:57.080Z,17.02
2018-07-07T06:01:25.433Z,17.61
2018-07-07T06:03:53.612Z,17.90
2018-07-07T06:06:21.993Z,17.98
2018-07-07T06:08:50.776Z,17.95
2018-07-07T06:11:19.505Z,18.00
2018-07-07T06:13:48.165Z,18.18
2018-07-07T06:16:16.660Z,18.36
2018-07-07T06:18:45.082Z,18.48
2018-07-07T06:21:13.498Z,18.63
2018-07-07T06:23:42.474Z,18.76
2018-07-07T06:26:10.973Z,18.81
2018-07-07T06:28:39.352Z,18.96
2018-07-07T06:31:08.728Z,18.95
2018-07-07T06:33:37.156Z,18.99
2018-07-07T06:36:05.391Z,18.97
2018-07-07T06:38:34.144Z,19.04
2018-07-07T06:41:02.252Z,19.22
2018-07-07T06:43:30.704Z,19.50
2018-07-07T06:45:59.756Z,19.73
2018-07-07T06:48:28.225Z,19.71
2018-07-07T06:50:56.664Z,19.65
2018-07-07T06:53:25.396Z,19.71
2018-07-07T06:55:53.545Z,19.85
2018-07-07T06:58:24.470Z,19.92
2018-07-07T07:00:53.483Z,20.00
2018-07-07T07:03:21.872Z,20.01
2018-07-07T07:05:50.841Z,19.98
2018-07-07T07:08:19.577Z,20.05
2018-07-07T07:10:48.042Z,20.21
2018-07-07T07:13:16.830Z,20.40
2018-07-07T07:15:45.557Z,20.64
2018-07-07T07:18:13.949Z,20.83
2018-07-07T07:20:42.575Z,20.80
2018-07-07T07:23:11.009Z,20.73
2018-07-07T07:25:39.432Z,20.72
2018-07-07T07:28:08.914Z,20.75
2018-07-07T07:30:37.376Z,20.89
2018-07-07T07:33:05.925Z,20.96
2018-07-07T07:35:34.707Z,21.02
2018-07-07T07:38:03.249Z,21.21
2018-07-07T07:40:31.992Z,21.44
2018-07-07T07:43:00.632Z,21.71
2018-07-07T07:45:29.321Z,21.88
2018-07-07T07:47:57.778Z,21.68
2018-07-07T07:50:26.013Z,21.60
2018-07-07T07:52:54.761Z,21.57
2018-07-07T07:55:23.222Z,21.67
2018-07-07T07:57:51.909Z,21.91
2018-07-07T08:00:21.164Z,22.20
2018-07-07T08:02:49.673Z,22.40
2018-07-07T08:05:18.169Z,22.43
2018-07-07T08:07:46.341Z,22.24
2018-07-07T08:10:14.644Z,22.21
2018-07-07T08:12:43.080Z,22.13
2018-07-07T08:15:11.809Z,22.15
2018-07-07T08:17:40.267Z,22.22
2018-07-07T08:20:09.416Z,22.46
2018-07-07T08:22:37.564Z,22.74
2018-07-07T08:25:05.916Z,23.01
2018-07-07T08:27:36.253Z,23.17
2018-07-07T08:30:04.601Z,22.97
2018-07-07T08:32:32.709Z,22.79
2018-07-07T08:35:02.602Z,22.60
2018-07-07T08:37:30.709Z,22.56
2018-07-07T08:39:59.392Z,22.63
2018-07-07T08:42:27.918Z,22.67
2018-07-07T08:44:56.560Z,22.79
2018-07-07T08:47:24.756Z,22.80
2018-07-07T08:49:53.381Z,22.88
2018-07-07T08:52:22.124Z,23.01
2018-07-07T08:54:50.880Z,23.07
2018-07-07T08:57:19.001Z,23.14
2018-07-07T08:59:47.434Z,23.24
2018-07-07T09:02:16.225Z,23.29
2018-07-07T09:04:45.540Z,23.17
2018-07-07T09:07:13.828Z,23.20
2018-07-07T09:09:42.748Z,23.41
2018-07-07T09:12:11.270Z,23.72
2018-07-07T09:14:39.540Z,23.78
2018-07-07T09:17:08.897Z,23.52
2018-07-07T09:19:37.014Z,23.15
2018-07-07T09:22:06.257Z,23.04
2018-07-07T09:24:34.787Z,23.25
2018-07-07T09:27:17.024Z,23.60
2018-07-07T09:29:45.462Z,24.13
2018-07-07T09:32:13.838Z,24.52
2018-07-07T09:34:42.361Z,24.60
2018-07-07T09:37:11.333Z,24.39
2018-07-07T09:39:39.569Z,24.34
2018-07-07T09:42:09.105Z,24.55
2018-07-07T09:44:37.393Z,24.84
2018-07-07T09:47:07.585Z,24.95
2018-07-07T09:49:36.008Z,24.90
2018-07-07T09:52:04.440Z,24.91
2018-07-07T09:54:33.001Z,25.12
2018-07-07T09:57:01.673Z,25.45
2018-07-07T09:59:30.313Z,25.66
2018-07-07T10:01:59.128Z,25.75
2018-07-07T10:04:27.845Z,25.98
2018-07-07T10:06:56.280Z,26.32
2018-07-07T10:09:25.270Z,26.50
2018-07-07T10:11:54.457Z,26.32
2018-07-07T10:14:25.887Z,25.89
2018-07-07T10:16:54.592Z,25.65
2018-07-07T10:19:23.677Z,25.85
2018-07-07T10:21:51.849Z,26.16
2018-07-07T10:24:20.301Z,26.18
2018-07-07T10:26:48.733Z,25.99
2018-07-07T10:29:17.289Z,25.73
2018-07-07T10:31:46.299Z,25.55
2018-07-07T10:34:15.014Z,25.62
2018-07-07T10:36:43.625Z,25.80
2018-07-07T10:39:12.033Z,26.08
2018-07-07T10:41:40.474Z,26.42
2018-07-07T10:44:09.689Z,26.66
2018-07-07T10:46:37.805Z,26.71
2018-07-07T10:49:05.924Z,26.60
2018-07-07T10:51:34.356Z,26.18
2018-07-07T10:54:02.809Z,25.80
2018-07-07T10:56:31.469Z,25.57
2018-07-07T10:59:00.206Z,25.48
2018-07-07T11:01:30.169Z,25.58
2018-07-07T11:03:58.861Z,26.00
2018-07-07T11:06:27.253Z,26.54
2018-07-07T11:08:55.697Z,26.82
2018-07-07T11:11:24.514Z,26.79
2018-07-07T11:13:53.992Z,26.64
2018-07-07T11:16:22.440Z,26.66
2018-07-07T11:18:51.225Z,26.39
2018-07-07T11:21:19.651Z,26.35
2018-07-07T11:23:48.221Z,26.47
2018-07-07T11:26:17.025Z,26.45
2018-07-07T11:28:45.441Z,26.38
2018-07-07T11:31:13.544Z,26.46
2018-07-07T11:33:42.224Z,26.69
2018-07-07T11:36:10.917Z,26.98
2018-07-07T11:38:39.249Z,27.10
2018-07-07T11:41:07.576Z,27.12
2018-07-07T11:43:36.227Z,27.24
2018-07-07T11:46:04.680Z,27.53
2018-07-07T11:48:33.225Z,27.82
2018-07-07T11:51:01.329Z,27.86
2018-07-07T11:53:29.821Z,27.66
2018-07-07T11:55:58.140Z,27.54
2018-07-07T11:58:26.584Z,27.37
2018-07-07T12:00:55.352Z,27.23
2018-07-07T12:03:23.451Z,27.27
2018-07-07T12:05:51.913Z,27.40
2018-07-07T12:08:20.416Z,27.66
2018-07-07T12:10:48.648Z,27.97
2018-07-07T12:13:17.296Z,28.34
2018-07-07T12:15:45.581Z,28.48
2018-07-07T12:18:14.637Z,28.52
2018-07-07T12:20:43.326Z,28.59
2018-07-07T12:23:11.781Z,28.69
2018-07-07T12:25:40.528Z,28.62
2018-07-07T12:28:09.713Z,28.46
2018-07-07T12:30:38.149Z,28.27
2018-07-07T12:33:06.381Z,28.21
2018-07-07T12:35:34.817Z,28.32
2018-07-07T12:38:03.849Z,28.45
2018-07-07T12:40:32.532Z,28.46
2018-07-07T12:43:01.441Z,28.44
2018-07-07T12:45:29.893Z,28.63
2018-07-07T12:47:58.084Z,28.86
2018-07-07T12:50:26.728Z,29.02
2018-07-07T12:52:54.890Z,28.90
2018-07-07T12:55:23.637Z,28.60
2018-07-07T12:57:52.076Z,28.46
2018-07-07T13:00:20.582Z,28.50
2018-07-07T13:02:49.532Z,28.38
2018-07-07T13:05:18.288Z,28.30
2018-07-07T13:07:46.781Z,28.40
2018-07-07T13:10:15.741Z,28.41
2018-07-07T13:12:44.252Z,28.54
2018-07-07T13:15:12.946Z,28.81
2018-07-07T13:17:41.474Z,29.16
2018-07-07T13:20:09.926Z,29.52
2018-07-07T13:22:38.815Z,29.68
2018-07-07T13:25:07.811Z,29.67
2018-07-07T13:27:36.793Z,29.68
2018-07-07T13:30:05.213Z,29.76
2018-07-07T13:32:33.322Z,29.84
2018-07-07T13:35:01.784Z,29.91
2018-07-07T13:37:30.730Z,29.62
2018-07-07T13:39:59.395Z,29.39
2018-07-07T13:42:28.113Z,29.13
2018-07-07T13:44:56.240Z,29.09
2018-07-07T13:47:25.025Z,28.98
2018-07-07T13:49:53.853Z,28.90
2018-07-07T13:52:22.589Z,28.89
2018-07-07T13:54:51.021Z,28.70
2018-07-07T13:57:19.637Z,28.73
2018-07-07T13:59:47.977Z,28.92
2018-07-07T14:02:16.980Z,29.14
2018-07-07T14:04:45.330Z,29.30
2018-07-07T14:07:14.207Z,29.39
2018-07-07T14:09:42.686Z,29.19
2018-07-07T14:12:11.148Z,29.19
2018-07-07T14:14:39.363Z,29.44
2018-07-07T14:17:07.518Z,29.69
2018-07-07T14:19:35.784Z,29.79
2018-07-07T14:22:04.225Z,29.70
2018-07-07T14:24:32.804Z,29.59
2018-07-07T14:27:00.961Z,29.63
2018-07-07T14:29:29.637Z,29.70
2018-07-07T14:31:57.762Z,29.61
2018-07-07T14:34:26.196Z,29.45
2018-07-07T14:36:54.880Z,29.40
2018-07-07T14:39:25.877Z,29.44
2018-07-07T14:42:02.965Z,29.54
2018-07-07T14:44:31.371Z,29.59
2018-07-07T14:46:59.917Z,29.47
2018-07-07T14:49:28.346Z,29.42
2018-07-07T14:51:57.553Z,29.34
2018-07-07T14:54:25.668Z,29.27
2018-07-07T14:56:54.089Z,29.32
2018-07-07T14:59:23.328Z,29.34
2018-07-07T15:01:51.902Z,29.41
2018-07-07T15:04:20.486Z,29.47
2018-07-07T15:06:48.593Z,29.28
2018-07-07T15:09:16.685Z,28.79
2018-07-07T15:11:45.437Z,28.62
2018-07-07T15:14:14.388Z,28.67
2018-07-07T15:16:42.548Z,28.81
2018-07-07T15:19:10.730Z,28.90
2018-07-07T15:21:38.837Z,28.97
2018-07-07T15:24:06.953Z,28.92
2018-07-07T15:26:35.376Z,28.72
2018-07-07T15:29:03.821Z,28.54
2018-07-07T15:31:33.139Z,28.37
2018-07-07T15:34:02.085Z,28.28
2018-07-07T15:36:31.244Z,28.31
2018-07-07T15:38:59.928Z,28.39
2018-07-07T15:41:28.029Z,28.35
2018-07-07T15:43:56.477Z,28.29
2018-07-07T15:46:25.335Z,28.23
2018-07-07T15:48:54.041Z,28.19
2018-07-07T15:51:22.823Z,28.17
2018-07-07T15:53:51.409Z,28.11
2018-07-07T15:56:19.895Z,28.12
2018-07-07T15:58:48.324Z,28.15
2018-07-07T16:01:16.705Z,28.10
2018-07-07T16:03:45.148Z,28.07
2018-07-07T16:06:13.786Z,28.01
2018-07-07T16:08:41.905Z,27.88
2018-07-07T16:11:10.510Z,27.72
2018-07-07T16:13:39.185Z,27.71
2018-07-07T16:16:07.276Z,27.70
2018-07-07T16:18:35.984Z,27.63
2018-07-07T16:21:04.077Z,27.58
2018-07-07T16:23:32.584Z,27.37
2018-07-07T16:26:00.753Z,27.10
2018-07-07T16:28:29.066Z,26.92
2018-07-07T16:30:57.180Z,26.82
2018-07-07T16:33:25.650Z,26.75
2018-07-07T16:35:53.985Z,26.77
2018-07-07T16:38:22.095Z,26.79
2018-07-07T16:40:50.566Z,26.72
2018-07-07T16:43:19.124Z,26.61
2018-07-07T16:45:47.224Z,26.46
2018-07-07T16:48:15.917Z,26.30
2018-07-07T16:50:44.202Z,26.18
2018-07-07T16:53:13.013Z,26.12
2018-07-07T16:55:41.453Z,26.12
2018-07-07T16:58:10.279Z,26.13
2018-07-07T17:00:38.622Z,26.08
2018-07-07T17:03:07.057Z,26.08
2018-07-07T17:05:35.449Z,26.11
2018-07-07T17:08:03.920Z,26.10
2018-07-07T17:10:32.297Z,26.03
2018-07-07T17:13:00.644Z,25.97
2018-07-07T17:15:29.393Z,25.88
2018-07-07T17:17:57.993Z,25.77
2018-07-07T17:20:26.956Z,25.67
2018-07-07T17:22:55.405Z,25.57
2018-07-07T17:25:24.023Z,25.52
2018-07-07T17:28:02.017Z,25.50
2018-07-07T17:30:30.268Z,25.42
2018-07-07T17:32:59.365Z,25.37
2018-07-07T17:35:28.269Z,25.31
2018-07-07T17:37:57.120Z,25.28
2018-07-07T17:40:25.859Z,25.19
2018-07-07T17:42:53.953Z,25.16
2018-07-07T17:45:22.417Z,25.07
2018-07-07T17:47:51.165Z,24.95
2018-07-07T17:50:20.238Z,24.87
2018-07-07T17:52:48.649Z,24.81
2018-07-07T17:55:17.572Z,24.68
2018-07-07T17:57:46.227Z,24.65
2018-07-07T18:00:14.997Z,24.67
2018-07-07T18:02:43.445Z,24.70
2018-07-07T18:05:11.841Z,24.70
2018-07-07T18:07:41.149Z,24.63
2018-07-07T18:10:10.357Z,24.57
2018-07-07T18:12:39.092Z,24.53
2018-07-07T18:15:07.925Z,24.49
2018-07-07T18:17:36.360Z,24.43
2018-07-07T18:20:05.109Z,24.39
2018-07-07T18:22:33.757Z,24.35
2018-07-07T18:25:02.521Z,24.27
2018-07-07T18:27:31.546Z,24.20
2018-07-07T18:30:00.277Z,24.13
2018-07-07T18:32:28.913Z,24.08
2018-07-07T18:34:57.045Z,24.00
2018-07-07T18:37:26.643Z,23.82
2018-07-07T18:39:55.955Z,23.70
2018-07-07T18:42:24.569Z,23.68
2018-07-07T18:44:53.181Z,23.64
2018-07-07T18:47:21.885Z,23.55
2018-07-07T18:49:50.057Z,23.47
2018-07-07T18:52:18.497Z,23.31
2018-07-07T18:54:47.020Z,23.27
2018-07-07T18:57:21.901Z,23.24
2018-07-07T18:59:50.540Z,23.21
2018-07-07T19:02:18.981Z,23.11
2018-07-07T19:04:47.421Z,23.07
2018-07-07T19:07:16.100Z,23.11
2018-07-07T19:09:44.218Z,23.10
2018-07-07T19:12:13.261Z,23.04
2018-07-07T19:14:41.434Z,22.92
2018-07-07T19:17:10.893Z,22.85
2018-07-07T19:19:39.359Z,22.82
2018-07-07T19:22:12.838Z,22.78
2018-07-07T19:24:46.708Z,22.71
2018-07-07T19:27:15.409Z,22.68
2018-07-07T19:29:43.896Z,22.71
2018-07-07T19:32:17.640Z,22.70
2018-07-07T19:34:51.820Z,22.68
2018-07-07T19:37:21.395Z,22.66
2018-07-07T19:39:49.564Z,22.66
2018-07-07T19:42:18.264Z,22.60
2018-07-07T19:44:47.052Z,22.52
2018-07-07T19:47:15.686Z,22.36
2018-07-07T19:49:44.328Z,22.23
2018-07-07T19:52:13.012Z,22.15
2018-07-07T19:54:42.025Z,22.11
2018-07-07T19:57:11.807Z,22.13
2018-07-07T19:59:40.626Z,22.14
2018-07-07T20:02:10.342Z,22.12
2018-07-07T20:04:38.641Z,22.06
2018-07-07T20:07:06.751Z,21.97
2018-07-07T20:09:35.829Z,21.87
2018-07-07T20:12:04.670Z,21.82
2018-07-07T20:14:33.101Z,21.85
2018-07-07T20:17:06.232Z,21.88
2018-07-07T20:19:48.261Z,21.80
2018-07-07T20:22:16.809Z,21.67
2018-07-07T20:24:45.537Z,21.64
2018-07-07T20:27:19.000Z,21.65
2018-07-07T20:29:47.723Z,21.60
2018-07-07T20:32:21.849Z,21.58
2018-07-07T20:34:50.232Z,21.58
2018-07-07T20:37:18.901Z,21.52
2018-07-07T20:39:47.953Z,21.38
2018-07-07T20:42:16.548Z,21.28
2018-07-07T20:44:45.513Z,21.26
2018-07-07T20:47:14.149Z,21.25
2018-07-07T20:49:42.341Z,21.24
2018-07-07T20:52:10.960Z,21.25
2018-07-07T20:54:39.929Z,21.24
2018-07-07T20:57:08.382Z,21.25
2018-07-07T20:59:36.812Z,21.21
2018-07-07T21:02:05.534Z,21.20
2018-07-07T21:04:34.153Z,21.19
2018-07-07T21:07:02.649Z,21.16
2018-07-07T21:09:31.157Z,21.14
2018-07-07T21:11:59.550Z,21.15
2018-07-07T21:14:29.253Z,21.18
2018-07-07T21:16:57.729Z,21.18
2018-07-07T21:19:25.828Z,21.20
2018-07-07T21:21:54.669Z,21.19
2018-07-07T21:24:23.002Z,21.16
2018-07-07T21:26:51.531Z,21.11
2018-07-07T21:29:19.651Z,21.03
2018-07-07T21:31:48.060Z,21.00
2018-07-07T21:34:17.021Z,20.99
2018-07-07T21:36:45.669Z,20.97
2018-07-07T21:39:14.038Z,20.95
2018-07-07T21:41:42.752Z,20.93
2018-07-07T21:44:11.898Z,20.91
2018-07-07T21:46:40.345Z,20.85
2018-07-07T21:49:08.668Z,20.76
2018-07-07T21:51:37.525Z,20.70
2018-07-07T21:54:07.232Z,20.66
2018-07-07T21:56:35.485Z,20.61
2018-07-07T21:59:09.329Z,20.59
2018-07-07T22:01:54.426Z,20.58
2018-07-07T22:04:29.323Z,20.57
2018-07-07T22:07:03.761Z,20.56
2018-07-07T22:09:33.985Z,20.56
2018-07-07T22:12:02.573Z,20.51
2018-07-07T22:14:30.938Z,20.48
2018-07-07T22:16:59.046Z,20.46
2018-07-07T22:19:29.123Z,20.45
2018-07-07T22:22:04.819Z,20.39
2018-07-07T22:24:33.262Z,20.33
2018-07-07T22:27:03.057Z,20.26
2018-07-07T22:29:31.553Z,20.18
2018-07-07T22:32:03.292Z,20.15
2018-07-07T22:34:39.605Z,20.12
2018-07-07T22:37:07.841Z,20.07
2018-07-07T22:39:37.259Z,19.99
2018-07-07T22:42:06.730Z,19.91
2018-07-07T22:44:36.344Z,19.83
2018-07-07T22:47:04.736Z,19.76
2018-07-07T22:49:33.404Z,19.75
2018-07-07T22:52:02.245Z,19.70
2018-07-07T22:54:31.321Z,19.60
2018-07-07T22:56:59.645Z,19.50
2018-07-07T22:59:28.373Z,19.49
2018-07-07T23:01:57.074Z,19.50
2018-07-07T23:04:25.663Z,19.50
2018-07-07T23:06:53.983Z,19.50
2018-07-07T23:09:22.584Z,19.45
2018-07-07T23:11:50.761Z,19.42
2018-07-07T23:14:19.269Z,19.35
2018-07-07T23:16:47.930Z,19.30
2018-07-07T23:19:16.034Z,19.27
2018-07-07T23:21:44.151Z,19.27
2018-07-07T23:24:13.114Z,19.28
2018-07-07T23:26:42.213Z,19.26
2018-07-07T23:29:12.390Z,19.23
2018-07-07T23:31:40.841Z,19.17
2018-07-07T23:34:10.897Z,19.14
2018-07-07T23:36:39.336Z,19.09
2018-07-07T23:39:07.633Z,19.02
2018-07-07T23:41:36.353Z,18.99
2018-07-07T23:44:04.750Z,18.99
2018-07-07T23:46:33.441Z,19.02
2018-07-07T23:49:02.108Z,19.02
2018-07-07T23:51:30.272Z,19.01
2018-07-07T23:53:59.423Z,19.01
2018-07-07T23:56:28.396Z,18.99
2018-07-07T23:58:56.776Z,18.93
